KBIF/BIF METAR and TAF weather

Enter ICAO airport designator
Station Type Date Time Source
KBIF METAR 2019/10/21 20:58 UTC NOAA

KBIF 212058Z AUTO 00000KT 10SM CLR 22/M10 A3004 RMK AO2 SLP127 T02181101 57022 $


Station Type Date Time Source
KBIF Decoded METAR 2019/10/21 20:58 UTC NOAA

Biggs Army Air Field / Ft. Bliss, TX, United States (KBIF) 31-51N 106-23W
Oct 21, 2019 - 04:58 PM EDT / 2019.10.21 2058 UTC
Wind: Calm:0
Visibility: 10 mile(s):0
Sky conditions: clear
Temperature: 71.2 F (21.8 C)
Dew Point: 13.8 F (-10.1 C)
Relative Humidity: 10%
Pressure (altimeter): 30.04 in. Hg (1017 hPa)
Pressure tendency: 0.06 inches (2.2 hPa) lower than three hours ago
ob: KBIF 212058Z AUTO 00000KT 10SM CLR 22/M10 A3004 RMK AO2 SLP127 T02181101 57022
cycle: 21

Station Type Date Time Source
KBIF TAF 2019/10/21 22:49 UTC NOAA

TAF KBIF 212205Z 2122/2304 27009KT 9999 SKC QNH3002INS
BECMG 2202/2203 VRB06KT 9999 SKC QNH3009INS TX23/2123Z TN06/2213Z

Example: see airport list